• Join FlightAware (Why Join?)
  • Login
  • US Flag 
03:32AM EDT


 

Airport Tracker/Info


-or-


 

Live Flight TrackerFlight Track Log ✈ N449ND ✈ 15-Mar-2014 ✈ KFPR - KFPR

Flight Track Log - Related Links

Times and Time Zones

All times are in EDT time to prevent confusion due to time zone crossing. See the N449ND flight status page for this flight to view local times or setup timezone preferences in your user account.

Time Position Orientation Groundspeed Altitude Reporting Facility
EDT Latitude Longitude Course Direction KTS MPH feet Rate Location/Type
07:43PM 27.5867 -80.4089 240° Southwest 100 115 3,000  Level Miami Center
07:44PM 27.5714 -80.4389 240° Southwest 100 115 3,000  Level Miami Center
07:45PM 27.5622 -80.4692 251° West 100 115 3,000  Level Miami Center
07:46PM 27.5594 -80.5042 265° West 105 121 3,000  Level Miami Center
07:47PM 27.5650 -80.5322 283° West 105 121 3,000  Level Miami Center
07:48PM 27.5808 -80.5656 298° West 105 121 3,000 -120 Level Miami Center
07:49PM 27.6050 -80.5900 318° Northwest 116 133 2,800 -480 Descending Miami Center
07:50PM 27.6317 -80.6164 319° Northwest 121 139 2,100 -600 Descending Miami Center
07:51PM 27.6586 -80.6244 345° North 121 139 1,600 -300 Descending Miami Center
07:52PM 27.6897 -80.6231 North 106 122 1,500 -60 Descending Miami Center
07:53PM 27.7214 -80.6125 16° North 100 115 1,500  Level Miami Center
07:54PM 27.7158 -80.5889 105° East 65 75 1,500  Level Miami Center
07:55PM 27.7061 -80.5628 113° Southeast 80 92 1,500 -180 Level Miami Center
07:56PM 27.6942 -80.5411 122° Southeast 92 106 1,200 -180 Descending Miami Center
07:57PM 27.6864 -80.5153 109° East 92 106 1,200  Level Miami Center
07:58PM 27.6767 -80.4867 111° Southeast 92 106 1,200 -180 Level Miami Center
07:59PM 27.6689 -80.4653 112° Southeast 86 99 900 -360 Descending Miami Center
08:00PM 27.6611 -80.4439 112° Southeast 81 93 500 -240 Descending Miami Center
08:01PM 27.6553 -80.4228 107° East 75 86 500 240 Level Miami Center
08:02PM 27.6519 -80.3944 98° East 70 81 1,000 480 Climbing Miami Center
08:03PM 27.6483 -80.3708 100° East 70 81 1,600 540 Climbing Miami Center
08:04PM 27.6447 -80.3450 99° East 70 81 2,200 660 Climbing Miami Center
08:05PM 27.6278 -80.3492 192° South 51 59 3,000 360 Climbing Miami Center
08:06PM 27.6189 -80.3794 252° West 82 94 3,000  Level Miami Center
08:07PM 27.6158 -80.4144 264° West 109 125 3,000  Level Miami Center
08:08PM 27.6089 -80.4469 256° West 114 131 3,000  Level Miami Center
08:09PM 27.6081 -80.4753 268° West 109 125 3,000  Level Miami Center
08:10PM 27.6011 -80.5078 256° West 104 120 3,000  Level Miami Center
08:11PM 27.5939 -80.5450 258° West 104 120 3,000  Level Miami Center
08:12PM 27.5867 -80.5753 255° West 104 120 3,000  Level Miami Center
08:13PM 27.5775 -80.6078 252° West 104 120 3,000  Level Miami Center
08:14PM 27.5625 -80.6258 227° Southwest 104 120 3,000  Level Miami Center
08:15PM 27.5789 -80.6358 332° Northwest 56 64 3,100  Climbing Miami Center
08:16PM 27.5839 -80.6056 79° East 60 69 3,000 -60 Descending Miami Center
08:17PM 27.5847 -80.5753 88° East 100 115 3,000  Level Miami Center
08:18PM 27.5717 -80.5911 227° Southwest 38 44 3,000  Level Miami Center
08:19PM 27.5689 -80.6239 265° West 72 83 3,000  Level Miami Center
08:20PM 27.5850 -80.6431 313° West 86 99 3,000 -60 Level Miami Center
08:21PM 27.5836 -80.6150 93° East 24 28 2,900 -360 Descending Miami Center
08:22PM 27.5736 -80.5983 124° Southeast 64 74 2,300 -480 Descending Miami Center
08:23PM 27.5528 -80.5975 178° South 74 85 2,000 -180 Descending Miami Center
08:24PM 27.5297 -80.5967 178° South 86 99 2,000  Level Miami Center
08:25PM 27.5025 -80.5983 183° South 86 99 2,000 -120 Level Miami Center
08:26PM 27.4992 -80.5747 99° East 60 69 1,800 -120 Descending Miami Center
08:27PM 27.4997 -80.5489 89° East 73 84 1,800  Level Miami Center
08:28PM 27.5003 -80.5256 88° East 79 91 1,800  Level Miami Center
08:29PM 27.4989 -80.4975 93° East 89 102 1,800 -60 Level Miami Center
08:30PM 27.4994 -80.4742 88° East 79 91 1,700 -300 Descending Miami Center
08:31PM 27.4981 -80.4506 94° East 79 91 1,200 -480 Descending Miami Center
08:32PM 27.4986 -80.4319 88° East 74 85 800 -360 Descending Miami Center
08:33PM 27.4992 -80.4086 88° East 69 79 500 -240 Descending Miami Center
08:34PM 27.4997 -80.3850 88° East 69 79 400 180 Descending Miami Center
08:35PM 27.4917 -80.3639 113° Southeast 69 79 900 540 Climbing Miami Center
08:36PM 27.4708 -80.3678 189° South 62 71 1,500 540 Climbing Miami Center
08:37PM 27.4497 -80.3742 195° South 80 92 2,000 480 Climbing Miami Center
08:38PM 27.4289 -80.3758 184° South 85 98 2,500 480 Climbing Miami Center
08:39PM 27.4219 -80.4086 257° West 85 98 3,000 240 Climbing Miami Center
08:40PM 27.4231 -80.4414 272° West 102 117 3,000  Level Miami Center
08:41PM 27.4222 -80.4764 268° West 118 136 3,000  Level Miami Center
08:42PM 27.4256 -80.5117 276° West 124 143 3,000 -360 Level Miami Center
08:43PM 27.4414 -80.5472 297° West 124 143 2,300 -540 Descending Miami Center
08:44PM 27.4744 -80.5622 338° Northwest 124 143 2,000 -180 Descending Miami Center
08:45PM 27.5036 -80.5631 359° North 114 131 2,000 -120 Level Miami Center
08:46PM 27.5000 -80.5372 99° East 68 78 1,800 -120 Descending Miami Center
08:47PM 27.4986 -80.5069 93° East 72 83 1,800  Level Miami Center
08:48PM 27.4992 -80.4833 88° East 72 83 1,800 -240 Level Miami Center
08:49PM 27.4978 -80.4600 94° East 72 83 1,400 -420 Descending Miami Center
08:50PM 27.4983 -80.4414 88° East 67 77 1,000 -420 Descending Miami Center
08:51PM 27.4989 -80.4178 88° East 67 77 600 -300 Descending Miami Center
08:52PM 27.5139 -80.3972 51° Northeast 62 71 500 -240 Descending Miami Center
08:53PM 27.5039 -80.3806 124° Southeast 56 64 200 -300 Descending Miami Center